Time;durP1;ratioP1;P1;durP2;ratioP2;P2;SDS_P1;SDS_P2;PMS_P1;PMS_P2;Temp;Humidity;BMP_temperature;BMP_pressure;BME280_temperature;BME280_humidity;BME280_pressure;Samples;Min_cycle;Max_cycle;Signal;HPM_P1;HPM_P2
2021/05/20 06:48:26;;;;;;;14.35;11.90;;;;;;;9.94;88.06;97427.56;1844784;76;22731;-70
2021/05/20 06:50:53;;;;;;;10.63;8.78;;;;;;;9.93;87.67;97421.98;1815382;79;21143;-66
2021/05/20 06:53:22;;;;;;;9.33;7.42;;;;;;;10.00;87.62;97429.06;1816097;79;21071;-66
2021/05/20 06:55:52;;;;;;;10.75;6.53;;;;;;;10.14;86.87;97421.03;1816260;79;21514;-60
2021/05/20 07:01:04;;;;;;;8.18;6.72;;;;;;;10.43;86.18;97424.14;1750522;80;21012;-65
2021/05/20 07:03:32;;;;;;;7.85;6.50;;;;;;;10.60;85.74;97423.48;1749969;82;21099;-62
2021/05/20 07:05:59;;;;;;;7.03;6.33;;;;;;;10.71;85.28;97420.27;1749761;82;21638;-61
2021/05/20 07:08:26;;;;;;;6.72;5.92;;;;;;;10.82;85.09;97420.80;1749754;82;21550;-59
2021/05/20 07:10:55;;;;;;;10.50;6.92;;;;;;;10.95;84.62;97423.40;1749722;82;21155;-61
2021/05/20 07:13:22;;;;;;;7.10;6.12;;;;;;;11.14;84.37;97425.87;1749908;82;21599;-63
2021/05/20 07:15:50;;;;;;;6.65;5.85;;;;;;;11.29;83.31;97415.31;1749973;82;21061;-65
2021/05/20 07:18:17;;;;;;;6.22;5.37;;;;;;;11.45;83.05;97405.77;1751264;82;21155;-61
2021/05/20 07:20:44;;;;;;;6.30;5.70;;;;;;;11.67;81.70;97407.04;1751053;82;20914;-64
2021/05/20 07:23:14;;;;;;;9.18;6.42;;;;;;;11.76;80.51;97408.43;1751342;82;20934;-62
2021/05/20 07:25:42;;;;;;;39.83;30.82;;;;;;;11.78;80.81;97413.72;1750764;82;21563;-64
2021/05/20 07:28:09;;;;;;;15.20;12.10;;;;;;;11.86;80.58;97417.00;1732857;82;21101;-64
2021/05/20 07:30:37;;;;;;;13.03;11.60;;;;;;;11.94;79.80;97418.89;1733007;82;21080;-62
2021/05/20 07:33:05;;;;;;;17.02;15.23;;;;;;;11.94;78.45;97420.81;1754412;80;21015;-65
2021/05/20 07:35:38;;;;;;;36.33;32.30;;;;;;;11.82;78.45;97428.12;1739729;81;20989;-65
2021/05/20 07:38:05;;;;;;;12.13;10.93;;;;;;;11.71;78.82;97426.80;1732854;82;20933;-64
2021/05/20 07:40:32;;;;;;;13.35;11.60;;;;;;;11.70;79.26;97423.09;1741626;79;21052;-65
2021/05/20 07:43:00;;;;;;;22.40;20.10;;;;;;;11.80;79.17;97424.16;1816799;79;21563;-65
2021/05/20 07:45:27;;;;;;;11.25;8.38;;;;;;;11.89;78.74;97422.30;1817645;79;20949;-65
2021/05/20 07:47:54;;;;;;;47.60;42.30;;;;;;;11.97;78.09;97422.84;1807130;79;20875;-62
2021/05/20 07:50:23;;;;;;;14.03;12.25;;;;;;;12.02;77.79;97426.19;1802037;79;21329;-66
2021/05/20 07:52:50;;;;;;;12.18;10.88;;;;;;;12.12;77.64;97418.39;1802040;79;20932;-65
2021/05/20 07:55:17;;;;;;;10.75;9.65;;;;;;;12.26;77.49;97417.16;1824463;78;21336;-67
2021/05/20 07:57:45;;;;;;;14.30;12.00;;;;;;;12.43;76.08;97424.44;1824541;78;21388;-65
2021/05/20 08:00:15;;;;;;;11.57;9.40;;;;;;;12.55;76.58;97421.12;1824172;78;20937;-62
2021/05/20 08:02:52;;;;;;;12.10;6.87;;;;;;;12.73;75.93;97428.06;1819505;78;20938;-70
2021/05/20 08:12:43;;;;;;;16.75;12.00;;;;;;;13.01;75.00;97426.05;1749660;80;21438;-64
2021/05/20 08:15:11;;;;;;;9.15;7.75;;;;;;;13.20;74.57;97424.39;1812480;78;21538;-67
2021/05/20 08:17:38;;;;;;;11.55;9.48;;;;;;;13.35;73.25;97423.88;1791492;80;20925;-63
2021/05/20 08:20:07;;;;;;;7.95;6.40;;;;;;;13.36;72.73;97430.83;1791477;80;20940;-63
2021/05/20 08:22:35;;;;;;;9.30;7.75;;;;;;;13.37;72.43;97428.93;1791433;80;20897;-70
2021/05/20 08:25:06;;;;;;;7.03;5.58;;;;;;;13.44;72.16;97442.13;1791706;80;21466;-63
2021/05/20 08:27:33;;;;;;;9.90;8.68;;;;;;;13.55;72.48;97442.00;1791469;80;20913;-65
2021/05/20 08:30:01;;;;;;;10.43;8.80;;;;;;;13.63;72.03;97446.58;1791590;80;21533;-64
2021/05/20 08:32:28;;;;;;;18.77;10.43;;;;;;;13.56;70.76;97445.48;1797521;78;22512;-63
2021/05/20 08:34:56;;;;;;;10.48;7.17;;;;;;;13.47;71.21;97448.77;1822848;78;21546;-63
2021/05/20 08:37:23;;;;;;;9.33;7.45;;;;;;;13.52;71.24;97448.02;1819396;78;21613;-63
2021/05/20 08:39:51;;;;;;;6.22;5.58;;;;;;;13.59;71.27;97442.92;1791218;80;21085;-63
2021/05/20 08:42:18;;;;;;;7.53;5.85;;;;;;;13.69;71.48;97443.92;1801964;77;21052;-66
2021/05/20 08:44:44;;;;;;;9.78;6.72;;;;;;;13.83;71.44;97444.25;1824084;78;21062;-62
2021/05/20 08:47:12;;;;;;;19.02;11.90;;;;;;;13.92;71.64;97440.98;1816541;78;21010;-64
2021/05/20 08:49:39;;;;;;;13.68;5.70;;;;;;;13.95;70.76;97445.70;1823863;78;20894;-66
2021/05/20 08:52:06;;;;;;;10.08;6.87;;;;;;;13.83;70.54;97452.33;1822762;78;21060;-63
2021/05/20 08:54:35;;;;;;;9.23;5.55;;;;;;;13.75;70.66;97441.06;1822511;78;21546;-62
2021/05/20 08:57:02;;;;;;;11.38;6.00;;;;;;;13.84;70.76;97439.11;1823234;78;21006;-66
2021/05/20 08:59:30;;;;;;;7.58;5.85;;;;;;;14.03;70.21;97430.86;1824044;78;21098;-69
2021/05/20 09:02:02;;;;;;;7.70;4.90;;;;;;;14.20;71.08;97430.73;1822780;78;21553;-62
2021/05/20 09:04:30;;;;;;;9.10;5.12;;;;;;;14.36;69.35;97433.70;1810929;78;21077;-64
2021/05/20 09:07:04;;;;;;;7.90;5.05;;;;;;;14.47;69.24;97437.57;1798029;78;21563;-65
2021/05/20 09:09:37;;;;;;;10.43;6.22;;;;;;;14.67;68.72;97443.54;1774690;80;21122;-64
2021/05/20 09:12:07;;;;;;;7.03;5.15;;;;;;;14.83;66.85;97439.11;1806677;77;21124;-66
2021/05/20 09:14:42;;;;;;;6.03;3.92;;;;;;;14.93;66.32;97441.38;1746420;82;21009;-65
2021/05/20 09:17:15;;;;;;;6.83;5.10;;;;;;;15.12;66.85;97436.84;1737877;82;20899;-63
2021/05/20 09:19:55;;;;;;;10.68;7.00;;;;;;;15.26;65.98;97438.69;1792515;79;21461;-64
2021/05/20 09:22:23;;;;;;;9.60;5.30;;;;;;;15.39;66.21;97437.61;1772089;78;21253;-62
2021/05/20 09:24:53;;;;;;;8.13;5.37;;;;;;;15.53;64.53;97441.37;1818965;78;21354;-65
2021/05/20 09:27:42;;;;;;;7.33;4.95;;;;;;;15.62;63.86;97443.41;1804311;78;21060;-64
2021/05/20 09:30:21;;;;;;;5.92;4.55;;;;;;;15.69;63.34;97444.98;1768839;80;21085;-66
2021/05/20 09:32:57;;;;;;;5.47;3.80;;;;;;;15.61;63.54;97439.14;1816145;78;20953;-67
2021/05/20 09:35:27;;;;;;;9.78;5.15;;;;;;;15.65;64.10;97442.73;1784596;79;21218;-65
2021/05/20 09:38:11;;;;;;;5.30;3.83;;;;;;;15.72;63.91;97434.31;1799119;79;21500;-69
2021/05/20 09:40:44;;;;;;;6.55;4.00;;;;;;;15.74;62.47;97439.37;1773092;80;21045;-64
2021/05/20 09:43:21;;;;;;;6.67;4.17;;;;;;;15.74;62.51;97431.27;1800532;78;21669;-67
2021/05/20 09:45:52;;;;;;;5.90;3.33;;;;;;;15.80;62.36;97435.90;1817194;78;21114;-67
2021/05/20 09:48:21;;;;;;;5.58;3.45;;;;;;;15.88;62.00;97433.63;1771838;79;21031;-68
2021/05/20 09:50:53;;;;;;;9.45;4.33;;;;;;;16.03;62.23;97427.56;1766105;81;20980;-65
2021/05/20 09:53:24;;;;;;;5.45;3.72;;;;;;;16.32;63.50;97428.09;1765320;81;21597;-68
2021/05/20 09:55:59;;;;;;;5.25;3.95;;;;;;;16.55;61.26;97419.52;1766073;79;21646;-69
2021/05/20 09:58:31;;;;;;;5.30;3.98;;;;;;;16.68;60.03;97424.55;1792812;79;21029;-66
2021/05/20 10:01:00;;;;;;;5.85;5.08;;;;;;;16.77;58.66;97415.72;1797793;79;21124;-68
2021/05/20 10:03:29;;;;;;;11.60;6.33;;;;;;;16.78;59.49;97420.57;1795593;79;21563;-67
2021/05/20 10:05:59;;;;;;;5.08;4.58;;;;;;;16.75;60.56;97420.69;1767776;79;21425;-69
2021/05/20 10:08:29;;;;;;;5.83;4.22;;;;;;;16.81;61.02;97419.89;1765424;81;21637;-67
2021/05/20 10:11:03;;;;;;;7.90;3.72;;;;;;;16.97;60.11;97411.26;1766287;79;20922;-67
2021/05/20 10:13:34;;;;;;;5.62;3.50;;;;;;;17.26;60.89;97406.05;1789664;78;21029;-65
2021/05/20 10:16:01;;;;;;;4.47;2.72;;;;;;;17.57;58.55;97409.58;1801066;78;21383;-66
2021/05/20 10:18:29;;;;;;;3.72;3.15;;;;;;;17.57;56.56;97395.28;1817943;78;21474;-65
2021/05/20 10:21:01;;;;;;;3.17;2.55;;;;;;;17.64;57.23;97390.80;1821002;78;21080;-66
2021/05/20 10:23:29;;;;;;;4.10;3.00;;;;;;;17.79;55.62;97398.70;1821179;78;20980;-66
2021/05/20 10:25:57;;;;;;;4.60;3.12;;;;;;;17.79;55.57;97394.64;1821297;78;21059;-65
2021/05/20 10:28:25;;;;;;;3.90;3.42;;;;;;;17.87;54.34;97401.02;1792096;78;20902;-68
2021/05/20 10:30:54;;;;;;;4.25;2.55;;;;;;;17.86;53.83;97394.81;1821258;78;21466;-64
2021/05/20 10:33:28;;;;;;;3.75;2.90;;;;;;;17.69;53.91;97387.04;1821472;78;21475;-67
2021/05/20 10:35:57;;;;;;;4.60;3.05;;;;;;;17.41;55.10;97399.28;1821333;78;20869;-70
2021/05/20 10:38:35;;;;;;;4.78;2.22;;;;;;;17.06;56.68;97405.12;1821302;78;21056;-68
2021/05/20 10:41:22;;;;;;;5.33;3.30;;;;;;;16.65;57.83;97413.64;1821256;78;20894;-68
2021/05/20 14:10:44;;;;;;;4.35;1.20;;;;;;;17.60;46.46;97437.88;1847577;76;22682;-67
2021/05/20 14:13:13;;;;;;;2.25;1.40;;;;;;;17.35;47.57;97429.11;1818020;78;21403;-67
2021/05/20 14:15:40;;;;;;;3.65;1.50;;;;;;;17.28;48.26;97435.69;1818093;79;21067;-66
2021/05/20 14:18:07;;;;;;;1.32;1.10;;;;;;;17.30;49.28;97438.04;1818046;79;20961;-67
2021/05/20 14:20:34;;;;;;;3.35;1.50;;;;;;;17.33;47.57;97440.85;1818040;79;20866;-66
2021/05/20 14:23:02;;;;;;;6.62;1.40;;;;;;;17.33;48.20;97435.44;1818101;79;21368;-67
2021/05/20 14:25:29;;;;;;;2.05;1.02;;;;;;;17.39;48.73;97444.87;1818259;78;20941;-69
2021/05/20 14:27:56;;;;;;;1.95;1.15;;;;;;;17.34;46.63;97438.34;1818097;79;21070;-67
2021/05/20 14:30:23;;;;;;;2.65;1.30;;;;;;;17.22;47.26;97434.94;1817987;79;20874;-69
2021/05/20 14:32:50;;;;;;;3.30;1.42;;;;;;;17.11;47.24;97427.88;1817986;79;21499;-68
2021/05/20 14:35:17;;;;;;;5.85;1.52;;;;;;;17.02;48.35;97436.71;1818035;79;20934;-70
2021/05/20 14:37:45;;;;;;;1.40;0.98;;;;;;;16.95;48.47;97436.52;1818222;79;21520;-69
2021/05/20 14:40:15;;;;;;;2.42;1.00;;;;;;;16.89;47.04;97444.64;1818080;79;21623;-67
2021/05/20 14:42:42;;;;;;;8.35;1.60;;;;;;;16.80;47.46;97439.94;1817978;79;20851;-67
2021/05/20 14:45:11;;;;;;;6.62;1.20;;;;;;;16.79;46.92;97437.03;1817942;79;21415;-69
2021/05/20 14:47:44;;;;;;;4.00;1.00;;;;;;;16.85;47.70;97430.23;1817919;79;21004;-66
2021/05/20 14:50:09;;;;;;;2.67;1.10;;;;;;;16.94;46.49;97441.13;1817725;79;20984;-67
2021/05/20 14:52:40;;;;;;;4.67;0.90;;;;;;;17.00;46.90;97440.33;1818048;78;20989;-67
2021/05/20 15:08:29;;;;;;;1.95;0.82;;;;;;;16.73;48.09;97443.80;1817859;78;20953;-67
2021/05/20 15:11:12;;;;;;;2.25;1.20;;;;;;;16.61;49.18;97461.40;1824336;78;21530;-67
2021/05/20 15:16:19;;;;;;;4.35;1.40;;;;;;;16.30;51.12;97476.28;1824682;78;20849;-68
2021/05/20 15:18:46;;;;;;;3.72;1.00;;;;;;;16.01;51.94;97475.19;1824626;78;21362;-67
2021/05/20 15:21:14;;;;;;;6.42;1.62;;;;;;;15.74;53.20;97481.22;1824205;78;20842;-70
2021/05/20 15:23:41;;;;;;;2.42;1.45;;;;;;;15.52;53.68;97472.20;1823959;78;20859;-67
2021/05/20 15:26:08;;;;;;;4.20;1.20;;;;;;;15.40;54.55;97479.64;1824056;78;21080;-71
2021/05/20 15:28:35;;;;;;;2.95;1.20;;;;;;;15.29;54.75;97476.35;1824059;78;21020;-71
